Time;durP1;ratioP1;P1;durP2;ratioP2;P2;SDS_P1;SDS_P2;PMS_P1;PMS_P2;Temp;Humidity;BMP_temperature;BMP_pressure;BME280_temperature;BME280_humidity;BME280_pressure;Samples;Min_cycle;Max_cycle;Signal;HPM_P1;HPM_P2
2021/07/19 00:01:04;;;;;;;0.00;0.00;;;;;;;;;;5084487;28;20203;-65
2021/07/19 00:03:30;;;;;;;0.00;0.00;;;;;;;;;;5084552;28;20199;-65
2021/07/19 00:05:56;;;;;;;0.00;0.00;;;;;;;;;;5083905;28;20210;-65
2021/07/19 00:08:22;;;;;;;0.00;0.00;;;;;;;;;;5098495;28;20284;-65
2021/07/19 00:10:49;;;;;;;0.00;0.00;;;;;;;;;;5090394;28;20331;-65
2021/07/19 00:13:17;;;;;;;0.00;0.00;;;;;;;;;;5098591;28;20207;-65
2021/07/19 00:15:43;;;;;;;0.57;0.57;;;;;;;;;;5092688;28;20207;-65
2021/07/19 00:18:09;;;;;;;0.00;0.00;;;;;;;;;;5091419;28;20200;-65
2021/07/19 00:20:36;;;;;;;0.00;0.00;;;;;;;;;;5098031;28;20211;-64
2021/07/19 00:23:02;;;;;;;0.22;0.22;;;;;;;;;;5094640;28;20195;-65
2021/07/19 00:25:28;;;;;;;0.00;0.00;;;;;;;;;;5089566;28;20233;-66
2021/07/19 00:27:56;;;;;;;0.00;0.00;;;;;;;;;;5094923;28;20325;-65
2021/07/19 00:30:24;;;;;;;0.10;0.10;;;;;;;;;;5083091;28;20238;-65
2021/07/19 00:32:50;;;;;;;0.00;0.00;;;;;;;;;;5083262;28;20215;-65
2021/07/19 00:35:16;;;;;;;0.10;0.10;;;;;;;;;;5092655;28;20206;-65
2021/07/19 00:37:43;;;;;;;0.03;0.03;;;;;;;;;;5084015;28;20377;-65
2021/07/19 00:40:11;;;;;;;0.03;0.03;;;;;;;;;;5088357;28;20207;-64
2021/07/19 00:42:40;;;;;;;0.00;0.00;;;;;;;;;;5087341;28;20252;-65
2021/07/19 00:45:08;;;;;;;0.10;0.10;;;;;;;;;;5092830;28;20275;-64
2021/07/19 00:47:36;;;;;;;3.92;0.85;;;;;;;;;;5087429;28;20584;-65
2021/07/19 00:50:02;;;;;;;0.40;0.40;;;;;;;;;;5092412;28;20259;-65
2021/07/19 00:52:28;;;;;;;0.00;0.00;;;;;;;;;;5102286;28;20210;-65
2021/07/19 00:54:54;;;;;;;0.00;0.00;;;;;;;;;;5090482;28;20260;-65
2021/07/19 00:57:22;;;;;;;0.00;0.00;;;;;;;;;;5089861;28;20419;-65
2021/07/19 00:59:48;;;;;;;0.10;0.10;;;;;;;;;;5092375;28;20541;-65
2021/07/19 01:02:15;;;;;;;0.73;0.73;;;;;;;;;;5092343;28;20467;-64
2021/07/19 01:04:43;;;;;;;0.00;0.00;;;;;;;;;;5089177;28;20206;-65
2021/07/19 01:07:10;;;;;;;0.10;0.10;;;;;;;;;;5086891;28;20245;-65
2021/07/19 01:09:36;;;;;;;0.00;0.00;;;;;;;;;;5091014;28;20227;-65
2021/07/19 01:12:03;;;;;;;0.10;0.10;;;;;;;;;;5093233;28;20259;-65
2021/07/19 01:14:29;;;;;;;0.00;0.00;;;;;;;;;;5092457;28;20487;-65
2021/07/19 01:16:55;;;;;;;0.35;0.35;;;;;;;;;;5086315;28;20256;-65
2021/07/19 01:19:22;;;;;;;0.10;0.10;;;;;;;;;;5091089;28;20236;-65
2021/07/19 01:22:07;;;;;;;0.10;0.10;;;;;;;;;;5100485;28;20206;-66
2021/07/19 01:24:39;;;;;;;1.23;1.23;;;;;;;;;;5084697;28;20421;-65
2021/07/19 01:27:11;;;;;;;0.00;0.00;;;;;;;;;;5095257;28;20213;-65
2021/07/19 01:29:39;;;;;;;0.20;0.20;;;;;;;;;;5083092;28;20252;-65
2021/07/19 01:32:06;;;;;;;0.00;0.00;;;;;;;;;;5096421;28;20217;-65
2021/07/19 01:34:33;;;;;;;0.20;0.20;;;;;;;;;;5082953;28;20260;-66
2021/07/19 01:37:02;;;;;;;0.00;0.00;;;;;;;;;;5082452;28;20203;-65
2021/07/19 01:39:31;;;;;;;0.10;0.10;;;;;;;;;;5084807;28;20291;-65
2021/07/19 01:41:59;;;;;;;0.10;0.10;;;;;;;;;;5095146;28;20238;-65
2021/07/19 01:44:26;;;;;;;0.10;0.10;;;;;;;;;;5091822;28;20260;-65
2021/07/19 01:46:54;;;;;;;0.00;0.00;;;;;;;;;;5087842;28;20222;-65
2021/07/19 01:49:20;;;;;;;0.00;0.00;;;;;;;;;;5096326;28;20233;-65
2021/07/19 01:51:47;;;;;;;0.10;0.10;;;;;;;;;;5086893;28;20402;-65
2021/07/19 01:54:14;;;;;;;0.35;0.35;;;;;;;;;;5097266;28;20230;-64
2021/07/19 01:56:41;;;;;;;0.10;0.10;;;;;;;;;;5096882;28;20271;-65
2021/07/19 01:59:07;;;;;;;0.00;0.00;;;;;;;;;;5094288;28;20209;-66
2021/07/19 02:01:34;;;;;;;0.73;0.73;;;;;;;;;;5094610;28;20205;-65
2021/07/19 02:04:02;;;;;;;0.10;0.10;;;;;;;;;;5096640;28;20216;-65
2021/07/19 02:06:29;;;;;;;0.00;0.00;;;;;;;;;;5081770;28;20218;-65
2021/07/19 02:09:00;;;;;;;0.03;0.03;;;;;;;;;;5082337;28;20483;-65
2021/07/19 02:11:27;;;;;;;0.75;0.75;;;;;;;;;;5095658;28;20196;-65
2021/07/19 02:13:54;;;;;;;0.20;0.20;;;;;;;;;;5087222;28;20251;-65
2021/07/19 02:16:21;;;;;;;0.10;0.10;;;;;;;;;;5105301;28;20418;-65
2021/07/19 02:18:47;;;;;;;0.63;0.63;;;;;;;;;;5102374;28;20198;-65
2021/07/19 02:21:19;;;;;;;0.00;0.00;;;;;;;;;;5095717;28;20222;-66
2021/07/19 02:23:46;;;;;;;0.10;0.10;;;;;;;;;;5088896;28;20406;-66
2021/07/19 02:26:13;;;;;;;0.20;0.20;;;;;;;;;;5101784;28;20225;-66
2021/07/19 02:28:40;;;;;;;0.03;0.03;;;;;;;;;;5097348;28;20240;-65
2021/07/19 02:31:07;;;;;;;0.10;0.10;;;;;;;;;;5099214;28;20367;-65
2021/07/19 02:33:34;;;;;;;0.10;0.10;;;;;;;;;;5105425;28;20209;-65
2021/07/19 02:36:00;;;;;;;0.30;0.30;;;;;;;;;;5105662;28;20212;-65
2021/07/19 02:38:28;;;;;;;0.10;0.10;;;;;;;;;;5092781;28;20209;-66
2021/07/19 02:40:55;;;;;;;3.60;3.40;;;;;;;;;;5099942;28;20434;-65
2021/07/19 02:43:22;;;;;;;0.10;0.10;;;;;;;;;;5096310;28;20209;-65
2021/07/19 02:45:49;;;;;;;0.10;0.10;;;;;;;;;;5091276;28;20271;-64
2021/07/19 02:48:15;;;;;;;0.08;0.08;;;;;;;;;;5105430;28;20224;-65
2021/07/19 02:50:43;;;;;;;0.03;0.03;;;;;;;;;;5105059;28;20356;-65
2021/07/19 02:53:10;;;;;;;0.10;0.10;;;;;;;;;;5085730;28;20344;-64
2021/07/19 02:55:39;;;;;;;0.08;0.08;;;;;;;;;;5086372;28;20273;-65
2021/07/19 02:58:06;;;;;;;0.10;0.10;;;;;;;;;;5097260;28;20497;-65
2021/07/19 03:00:34;;;;;;;0.10;0.10;;;;;;;;;;5093835;28;20205;-65
2021/07/19 03:03:01;;;;;;;0.00;0.00;;;;;;;;;;5100015;28;20205;-65
2021/07/19 03:05:29;;;;;;;0.05;0.05;;;;;;;;;;5105329;28;20209;-65
2021/07/19 03:07:56;;;;;;;0.10;0.10;;;;;;;;;;5088987;28;20500;-65
2021/07/19 03:10:23;;;;;;;0.10;0.10;;;;;;;;;;5093080;28;20237;-65
2021/07/19 03:12:52;;;;;;;0.05;0.05;;;;;;;;;;5092685;28;20416;-65
2021/07/19 03:15:18;;;;;;;0.38;0.38;;;;;;;;;;5094464;28;20538;-65
2021/07/19 03:17:47;;;;;;;0.10;0.10;;;;;;;;;;5090868;28;20229;-65
2021/07/19 03:20:14;;;;;;;0.00;0.00;;;;;;;;;;5099788;28;20197;-65
2021/07/19 03:22:41;;;;;;;0.00;0.00;;;;;;;;;;5096150;28;20215;-65
2021/07/19 03:25:09;;;;;;;0.00;0.00;;;;;;;;;;5091940;28;20270;-64
2021/07/19 03:27:36;;;;;;;0.00;0.00;;;;;;;;;;5086468;28;20204;-65
2021/07/19 03:30:04;;;;;;;0.00;0.00;;;;;;;;;;5104636;28;20220;-65
2021/07/19 03:32:30;;;;;;;0.10;0.10;;;;;;;;;;5090638;28;20220;-64
2021/07/19 03:34:57;;;;;;;0.03;0.03;;;;;;;;;;5096992;28;20201;-64
2021/07/19 03:37:23;;;;;;;0.10;0.10;;;;;;;;;;5085682;28;20201;-65
2021/07/19 03:39:51;;;;;;;0.00;0.00;;;;;;;;;;5096055;28;20202;-65
2021/07/19 03:42:17;;;;;;;0.00;0.00;;;;;;;;;;5100025;28;20411;-64
2021/07/19 03:44:44;;;;;;;0.00;0.00;;;;;;;;;;5084272;28;20202;-64
2021/07/19 03:47:12;;;;;;;0.03;0.03;;;;;;;;;;5088571;28;20490;-65
2021/07/19 03:49:39;;;;;;;0.00;0.00;;;;;;;;;;5095939;28;20383;-65
2021/07/19 03:52:05;;;;;;;0.08;0.08;;;;;;;;;;5084802;28;20201;-65
2021/07/19 03:54:33;;;;;;;0.00;0.00;;;;;;;;;;5097399;28;20211;-65
2021/07/19 03:56:59;;;;;;;0.00;0.00;;;;;;;;;;5090835;28;20479;-65
2021/07/19 03:59:27;;;;;;;0.10;0.10;;;;;;;;;;5098989;28;20257;-65
2021/07/19 04:01:54;;;;;;;0.03;0.03;;;;;;;;;;5100688;28;20308;-65
2021/07/19 04:04:38;;;;;;;0.00;0.00;;;;;;;;;;5089643;28;20209;-65
2021/07/19 04:07:05;;;;;;;0.00;0.00;;;;;;;;;;5097278;28;20209;-64
2021/07/19 04:09:31;;;;;;;0.00;0.00;;;;;;;;;;5085489;28;20232;-65
2021/07/19 04:11:57;;;;;;;0.10;0.10;;;;;;;;;;5087941;28;20205;-64
2021/07/19 04:14:23;;;;;;;0.10;0.10;;;;;;;;;;5090064;28;20206;-65
2021/07/19 04:16:50;;;;;;;0.10;0.10;;;;;;;;;;5095460;28;20204;-66
2021/07/19 04:19:16;;;;;;;0.10;0.10;;;;;;;;;;5094385;28;20203;-65
2021/07/19 04:21:44;;;;;;;0.10;0.10;;;;;;;;;;5089989;28;20202;-66
2021/07/19 04:24:11;;;;;;;0.00;0.00;;;;;;;;;;5091195;28;20209;-66
2021/07/19 04:26:38;;;;;;;0.00;0.00;;;;;;;;;;5100130;28;20209;-66
2021/07/19 04:29:05;;;;;;;0.10;0.10;;;;;;;;;;5103779;28;20230;-67
2021/07/19 04:31:32;;;;;;;0.05;0.05;;;;;;;;;;5089958;28;20241;-64
2021/07/19 04:33:58;;;;;;;0.00;0.00;;;;;;;;;;5102228;28;20216;-66
2021/07/19 04:36:27;;;;;;;0.10;0.10;;;;;;;;;;5088838;28;20225;-66
2021/07/19 04:38:55;;;;;;;0.10;0.10;;;;;;;;;;5088981;28;20308;-66
2021/07/19 04:41:21;;;;;;;0.10;0.10;;;;;;;;;;5103776;28;20253;-66
2021/07/19 04:43:47;;;;;;;0.10;0.10;;;;;;;;;;5099666;28;20223;-66
2021/07/19 04:46:14;;;;;;;0.08;0.08;;;;;;;;;;5083352;28;20479;-66
2021/07/19 04:48:41;;;;;;;0.10;0.10;;;;;;;;;;5097026;28;20203;-66
2021/07/19 04:51:07;;;;;;;0.00;0.00;;;;;;;;;;5083395;28;20482;-66
2021/07/19 04:53:34;;;;;;;0.03;0.03;;;;;;;;;;5083127;28;20205;-66
2021/07/19 04:56:02;;;;;;;0.10;0.10;;;;;;;;;;5087187;28;20208;-66
2021/07/19 04:58:29;;;;;;;0.10;0.10;;;;;;;;;;5082725;28;20210;-66
2021/07/19 05:00:59;;;;;;;0.10;0.10;;;;;;;;;;5094995;28;20212;-66
2021/07/19 05:03:26;;;;;;;0.08;0.08;;;;;;;;;;5103034;28;20213;-66
2021/07/19 05:05:53;;;;;;;0.00;0.00;;;;;;;;;;5100799;28;20233;-66
2021/07/19 05:08:20;;;;;;;2.35;1.17;;;;;;;;;;5090946;28;20216;-66
2021/07/19 05:10:47;;;;;;;0.00;0.00;;;;;;;;;;5101864;28;20229;-65
2021/07/19 05:13:15;;;;;;;0.00;0.00;;;;;;;;;;5092749;28;20241;-66
2021/07/19 05:15:42;;;;;;;0.00;0.00;;;;;;;;;;5094676;28;20206;-66
2021/07/19 05:18:09;;;;;;;0.10;0.10;;;;;;;;;;5101582;28;20205;-66
2021/07/19 05:20:36;;;;;;;0.10;0.10;;;;;;;;;;5102502;28;20192;-66
2021/07/19 05:23:03;;;;;;;0.10;0.10;;;;;;;;;;5087921;28;20243;-66
2021/07/19 05:25:30;;;;;;;0.00;0.00;;;;;;;;;;5093235;28;20222;-66
2021/07/19 05:28:03;;;;;;;0.05;0.05;;;;;;;;;;5096887;28;20199;-65
2021/07/19 05:30:31;;;;;;;0.43;0.43;;;;;;;;;;5083411;28;20283;-65
2021/07/19 05:32:58;;;;;;;0.00;0.00;;;;;;;;;;5082844;28;20244;-65
2021/07/19 05:35:24;;;;;;;0.10;0.10;;;;;;;;;;5094741;28;20432;-65
2021/07/19 05:37:50;;;;;;;0.03;0.03;;;;;;;;;;5082630;28;20419;-65
2021/07/19 05:40:17;;;;;;;0.10;0.10;;;;;;;;;;5083547;28;20258;-66
2021/07/19 05:42:44;;;;;;;0.00;0.00;;;;;;;;;;5094716;28;20208;-64
2021/07/19 05:45:11;;;;;;;0.03;0.03;;;;;;;;;;5085350;28;20205;-64
2021/07/19 05:47:39;;;;;;;0.00;0.00;;;;;;;;;;5096529;28;20204;-64
2021/07/19 05:50:06;;;;;;;0.08;0.08;;;;;;;;;;5083352;28;20298;-64
2021/07/19 05:52:33;;;;;;;0.10;0.10;;;;;;;;;;5084329;28;20216;-64
2021/07/19 05:54:59;;;;;;;0.10;0.10;;;;;;;;;;5086159;28;20254;-64
2021/07/19 05:57:26;;;;;;;0.00;0.00;;;;;;;;;;5087261;28;20245;-64
2021/07/19 05:59:55;;;;;;;0.25;0.25;;;;;;;;;;5083960;28;20248;-64
2021/07/19 06:02:22;;;;;;;0.05;0.05;;;;;;;;;;5091732;28;20387;-64
2021/07/19 06:04:50;;;;;;;0.00;0.00;;;;;;;;;;5089435;28;20532;-64
2021/07/19 06:07:16;;;;;;;0.05;0.05;;;;;;;;;;5095831;28;20204;-64
2021/07/19 06:09:42;;;;;;;0.10;0.10;;;;;;;;;;5082801;28;20221;-65
2021/07/19 06:12:10;;;;;;;0.00;0.00;;;;;;;;;;5082534;28;20217;-64
2021/07/19 06:14:37;;;;;;;0.52;0.52;;;;;;;;;;5091087;28;20209;-64
2021/07/19 06:17:03;;;;;;;0.00;0.00;;;;;;;;;;5080940;28;20209;-65
2021/07/19 06:19:30;;;;;;;0.10;0.10;;;;;;;;;;5090957;28;20217;-65
2021/07/19 06:21:57;;;;;;;0.00;0.00;;;;;;;;;;5088844;28;20213;-65
2021/07/19 06:24:23;;;;;;;0.00;0.00;;;;;;;;;;5084748;28;20440;-65
2021/07/19 06:26:49;;;;;;;0.30;0.30;;;;;;;;;;5084848;28;20417;-66
2021/07/19 06:29:16;;;;;;;0.00;0.00;;;;;;;;;;5087029;28;20222;-65
2021/07/19 06:31:42;;;;;;;0.00;0.00;;;;;;;;;;5086808;28;20397;-66
2021/07/19 06:34:09;;;;;;;0.40;0.40;;;;;;;;;;5082722;28;20223;-65
2021/07/19 06:36:35;;;;;;;0.10;0.10;;;;;;;;;;5088043;28;20383;-66
2021/07/19 06:39:04;;;;;;;0.70;0.70;;;;;;;;;;5086725;28;20489;-66
2021/07/19 06:41:30;;;;;;;0.00;0.00;;;;;;;;;;5089530;28;20315;-65
2021/07/19 06:43:56;;;;;;;0.10;0.10;;;;;;;;;;5099429;28;20204;-65
2021/07/19 06:46:22;;;;;;;0.10;0.10;;;;;;;;;;5101563;28;20263;-65
2021/07/19 06:48:48;;;;;;;0.00;0.00;;;;;;;;;;5101503;28;20447;-65
2021/07/19 06:51:15;;;;;;;0.10;0.10;;;;;;;;;;5093495;28;20355;-66
2021/07/19 06:53:41;;;;;;;0.00;0.00;;;;;;;;;;5098669;28;20218;-66
2021/07/19 06:56:08;;;;;;;0.03;0.03;;;;;;;;;;5091354;28;20208;-65
2021/07/19 06:58:35;;;;;;;0.00;0.00;;;;;;;;;;5089161;28;20215;-65
2021/07/19 07:01:01;;;;;;;0.00;0.00;;;;;;;;;;5099560;28;20201;-66
2021/07/19 07:03:27;;;;;;;0.10;0.10;;;;;;;;;;5105494;28;20206;-66
2021/07/19 07:05:53;;;;;;;0.10;0.10;;;;;;;;;;5096121;28;20232;-65
2021/07/19 07:08:20;;;;;;;0.10;0.10;;;;;;;;;;5094197;28;20206;-66
2021/07/19 07:10:48;;;;;;;0.10;0.10;;;;;;;;;;5090568;28;20282;-65
2021/07/19 07:13:15;;;;;;;0.00;0.00;;;;;;;;;;5084979;28;20320;-66
2021/07/19 07:15:41;;;;;;;0.00;0.00;;;;;;;;;;5101052;28;20226;-64
2021/07/19 07:18:08;;;;;;;0.00;0.00;;;;;;;;;;5085874;28;20249;-63
2021/07/19 07:20:34;;;;;;;0.10;0.10;;;;;;;;;;5084977;28;20417;-63
2021/07/19 07:23:01;;;;;;;2.40;1.13;;;;;;;;;;5084770;28;20213;-64
2021/07/19 07:25:27;;;;;;;0.00;0.00;;;;;;;;;;5084636;28;20488;-63
2021/07/19 07:27:53;;;;;;;4.70;4.40;;;;;;;;;;5088287;28;20285;-64
2021/07/19 07:30:21;;;;;;;0.00;0.00;;;;;;;;;;5088301;28;20231;-64
2021/07/19 07:32:48;;;;;;;0.00;0.00;;;;;;;;;;5098207;28;20279;-65
2021/07/19 07:35:14;;;;;;;0.00;0.00;;;;;;;;;;5088257;28;20410;-65
2021/07/19 07:37:41;;;;;;;0.10;0.10;;;;;;;;;;5088398;28;20217;-65
2021/07/19 07:40:09;;;;;;;0.00;0.00;;;;;;;;;;5098641;28;20253;-65
2021/07/19 07:42:35;;;;;;;0.47;0.45;;;;;;;;;;5104767;28;20205;-65
2021/07/19 07:45:02;;;;;;;0.10;0.10;;;;;;;;;;5092184;28;20258;-65
2021/07/19 07:47:29;;;;;;;0.10;0.10;;;;;;;;;;5085871;28;20546;-64
2021/07/19 07:49:55;;;;;;;0.10;0.10;;;;;;;;;;5097492;28;20299;-64
2021/07/19 07:52:22;;;;;;;0.00;0.00;;;;;;;;;;5101467;28;20214;-65
2021/07/19 07:54:48;;;;;;;0.00;0.00;;;;;;;;;;5087786;28;20224;-65
2021/07/19 07:57:14;;;;;;;0.08;0.08;;;;;;;;;;5097796;28;20201;-63
2021/07/19 07:59:41;;;;;;;0.00;0.00;;;;;;;;;;5088957;28;20255;-65
2021/07/19 08:02:07;;;;;;;0.10;0.10;;;;;;;;;;5097506;28;20210;-64
2021/07/19 08:04:36;;;;;;;0.10;0.10;;;;;;;;;;5089718;28;20246;-64
2021/07/19 08:07:03;;;;;;;0.00;0.00;;;;;;;;;;5096841;28;20243;-64
2021/07/19 08:09:29;;;;;;;0.10;0.10;;;;;;;;;;5089759;28;20238;-64
2021/07/19 08:11:56;;;;;;;0.10;0.10;;;;;;;;;;5099636;28;20236;-64
2021/07/19 08:14:22;;;;;;;0.10;0.10;;;;;;;;;;5090841;28;20523;-64
2021/07/19 08:16:49;;;;;;;0.30;0.30;;;;;;;;;;5095233;28;20206;-64
2021/07/19 08:19:15;;;;;;;0.00;0.00;;;;;;;;;;5083446;28;20228;-64
2021/07/19 08:21:43;;;;;;;0.00;0.00;;;;;;;;;;5089822;28;20505;-64
2021/07/19 08:24:10;;;;;;;0.00;0.00;;;;;;;;;;5090775;28;20210;-65
2021/07/19 08:26:36;;;;;;;0.10;0.10;;;;;;;;;;5101153;28;20288;-64
2021/07/19 08:29:03;;;;;;;0.00;0.00;;;;;;;;;;5101205;28;20213;-64
2021/07/19 08:31:30;;;;;;;0.00;0.00;;;;;;;;;;5087761;28;20227;-64
2021/07/19 08:33:56;;;;;;;0.00;0.00;;;;;;;;;;5084456;28;20285;-64
2021/07/19 08:36:22;;;;;;;2.65;2.55;;;;;;;;;;5083735;28;20208;-65
2021/07/19 08:38:51;;;;;;;0.00;0.00;;;;;;;;;;5087239;28;20245;-64
2021/07/19 08:41:18;;;;;;;0.10;0.10;;;;;;;;;;5102678;28;20212;-64
2021/07/19 08:43:44;;;;;;;0.20;0.20;;;;;;;;;;5089316;28;20199;-65
2021/07/19 08:46:11;;;;;;;0.00;0.00;;;;;;;;;;5087607;28;20562;-65
2021/07/19 08:48:38;;;;;;;0.00;0.00;;;;;;;;;;5085721;28;20209;-65
2021/07/19 08:51:06;;;;;;;0.10;0.10;;;;;;;;;;5088773;28;20220;-65
2021/07/19 08:53:33;;;;;;;0.30;0.30;;;;;;;;;;5102896;28;20206;-65
2021/07/19 08:56:01;;;;;;;0.10;0.10;;;;;;;;;;5086584;28;20427;-66
2021/07/19 08:58:28;;;;;;;0.00;0.00;;;;;;;;;;5093719;28;20212;-65
2021/07/19 09:00:56;;;;;;;0.00;0.00;;;;;;;;;;5087751;28;20205;-64
2021/07/19 09:03:23;;;;;;;0.10;0.10;;;;;;;;;;5084567;28;20206;-65
2021/07/19 09:05:51;;;;;;;0.20;0.20;;;;;;;;;;5082117;28;20202;-65
2021/07/19 09:08:17;;;;;;;0.00;0.00;;;;;;;;;;5090229;28;20212;-64
2021/07/19 09:10:44;;;;;;;0.10;0.10;;;;;;;;;;5096872;28;20237;-66
2021/07/19 09:13:17;;;;;;;0.10;0.10;;;;;;;;;;5082225;28;20206;-64
2021/07/19 09:15:43;;;;;;;1.88;1.77;;;;;;;;;;5091156;28;20209;-68
2021/07/19 09:18:10;;;;;;;0.00;0.00;;;;;;;;;;5083546;28;20500;-64
2021/07/19 09:20:37;;;;;;;0.00;0.00;;;;;;;;;;5090122;28;20277;-66
2021/07/19 09:23:03;;;;;;;0.00;0.00;;;;;;;;;;5082075;28;20243;-65
2021/07/19 09:25:29;;;;;;;0.38;0.38;;;;;;;;;;5088054;28;20231;-69
2021/07/19 09:27:58;;;;;;;0.00;0.00;;;;;;;;;;5089274;28;20201;-71
2021/07/19 09:30:27;;;;;;;0.00;0.00;;;;;;;;;;5089854;28;20349;-69
2021/07/19 09:32:54;;;;;;;0.17;0.17;;;;;;;;;;5092570;28;20561;-68
2021/07/19 09:35:21;;;;;;;0.00;0.00;;;;;;;;;;5081780;28;20212;-68
2021/07/19 09:37:47;;;;;;;0.00;0.00;;;;;;;;;;5095785;28;20299;-68
2021/07/19 09:40:14;;;;;;;0.10;0.10;;;;;;;;;;5091315;28;20522;-67
2021/07/19 09:42:41;;;;;;;0.00;0.00;;;;;;;;;;5088896;28;20251;-67
2021/07/19 09:45:08;;;;;;;0.00;0.00;;;;;;;;;;5096502;28;20274;-68
2021/07/19 09:47:36;;;;;;;0.03;0.03;;;;;;;;;;5082113;28;20197;-68
2021/07/19 09:50:08;;;;;;;0.10;0.10;;;;;;;;;;5096168;28;20391;-68
2021/07/19 09:52:35;;;;;;;0.10;0.10;;;;;;;;;;5081554;28;20240;-68
2021/07/19 09:55:01;;;;;;;0.85;0.85;;;;;;;;;;5098539;28;20246;-68
2021/07/19 09:57:28;;;;;;;0.00;0.00;;;;;;;;;;5102247;28;20253;-69
2021/07/19 09:59:55;;;;;;;0.05;0.05;;;;;;;;;;5090850;28;20221;-68
2021/07/19 10:02:36;;;;;;;0.00;0.00;;;;;;;;;;5098283;28;20225;-69
2021/07/19 10:05:03;;;;;;;0.00;0.00;;;;;;;;;;5083875;28;20203;-67
2021/07/19 10:07:29;;;;;;;0.00;0.00;;;;;;;;;;5093836;28;20204;-68
2021/07/19 10:09:56;;;;;;;0.10;0.10;;;;;;;;;;5100786;28;20230;-68
2021/07/19 10:12:23;;;;;;;0.00;0.00;;;;;;;;;;5096227;28;20298;-67
2021/07/19 10:14:51;;;;;;;0.00;0.00;;;;;;;;;;5084718;28;20393;-66
2021/07/19 10:17:17;;;;;;;0.10;0.10;;;;;;;;;;5089708;28;20204;-66
2021/07/19 10:19:45;;;;;;;0.00;0.00;;;;;;;;;;5083953;28;20492;-65
2021/07/19 10:22:13;;;;;;;0.10;0.10;;;;;;;;;;5094653;28;20296;-66
2021/07/19 10:24:40;;;;;;;0.00;0.00;;;;;;;;;;5085003;28;20225;-66
2021/07/19 10:27:06;;;;;;;0.00;0.00;;;;;;;;;;5092506;28;20269;-66
2021/07/19 10:29:32;;;;;;;0.30;0.30;;;;;;;;;;5089384;28;20248;-65
2021/07/19 10:31:59;;;;;;;0.08;0.08;;;;;;;;;;5096714;28;20241;-66
2021/07/19 10:34:25;;;;;;;0.00;0.00;;;;;;;;;;5088937;28;20424;-66
2021/07/19 10:36:55;;;;;;;0.10;0.10;;;;;;;;;;5094960;28;20230;-66
2021/07/19 10:39:22;;;;;;;0.00;0.00;;;;;;;;;;5093319;28;20310;-65
2021/07/19 10:41:58;;;;;;;0.10;0.10;;;;;;;;;;5102401;28;20298;-65
2021/07/19 10:44:27;;;;;;;0.10;0.10;;;;;;;;;;5090054;28;20200;-66
2021/07/19 10:46:55;;;;;;;0.10;0.10;;;;;;;;;;5103302;28;20437;-67
2021/07/19 10:49:21;;;;;;;0.10;0.10;;;;;;;;;;5099399;28;20271;-66
2021/07/19 10:51:48;;;;;;;0.35;0.35;;;;;;;;;;5093293;28;20225;-66
2021/07/19 10:54:18;;;;;;;0.10;0.10;;;;;;;;;;5097332;28;20202;-66
2021/07/19 10:56:45;;;;;;;0.20;0.20;;;;;;;;;;5089920;28;20205;-66
2021/07/19 10:59:22;;;;;;;0.00;0.00;;;;;;;;;;5095994;28;20233;-66
2021/07/19 11:01:51;;;;;;;0.00;0.00;;;;;;;;;;5095895;28;20235;-66
2021/07/19 11:04:18;;;;;;;0.03;0.03;;;;;;;;;;5101092;28;20232;-65
2021/07/19 11:06:49;;;;;;;0.10;0.10;;;;;;;;;;5088337;28;20198;-65
2021/07/19 11:09:16;;;;;;;0.10;0.10;;;;;;;;;;5094883;28;20202;-64
2021/07/19 11:11:44;;;;;;;5.70;0.65;;;;;;;;;;5091926;28;20262;-66
2021/07/19 11:14:13;;;;;;;0.10;0.10;;;;;;;;;;5089922;28;20205;-66
2021/07/19 11:16:40;;;;;;;0.00;0.00;;;;;;;;;;5098205;28;20203;-66
2021/07/19 11:19:06;;;;;;;15.32;2.10;;;;;;;;;;5098328;28;20301;-65
2021/07/19 11:21:33;;;;;;;0.10;0.10;;;;;;;;;;5102329;28;20240;-66
2021/07/19 11:24:06;;;;;;;0.00;0.00;;;;;;;;;;5102635;28;20228;-65
2021/07/19 11:26:34;;;;;;;0.10;0.10;;;;;;;;;;5102621;28;20221;-66
2021/07/19 11:29:00;;;;;;;0.00;0.00;;;;;;;;;;5094490;28;20209;-66
2021/07/19 11:31:27;;;;;;;0.10;0.10;;;;;;;;;;5084421;28;20271;-67
2021/07/19 11:34:00;;;;;;;0.32;0.32;;;;;;;;;;5093215;28;20224;-66
2021/07/19 11:36:28;;;;;;;0.10;0.10;;;;;;;;;;5102741;28;20226;-66
2021/07/19 11:38:55;;;;;;;0.00;0.00;;;;;;;;;;5088959;28;20209;-67
2021/07/19 11:41:23;;;;;;;0.00;0.00;;;;;;;;;;5104131;28;20200;-67
2021/07/19 11:43:52;;;;;;;0.00;0.00;;;;;;;;;;5086831;28;20202;-66
2021/07/19 11:46:25;;;;;;;0.00;0.00;;;;;;;;;;5095544;28;20398;-66
2021/07/19 11:48:55;;;;;;;0.00;0.00;;;;;;;;;;5101032;28;20214;-66
2021/07/19 11:51:22;;;;;;;0.00;0.00;;;;;;;;;;5089747;28;20219;-66
2021/07/19 11:53:48;;;;;;;0.00;0.00;;;;;;;;;;5097744;28;20269;-67
2021/07/19 11:56:14;;;;;;;0.10;0.10;;;;;;;;;;5090526;28;20262;-66
2021/07/19 11:58:42;;;;;;;0.00;0.00;;;;;;;;;;5094572;28;20206;-67
2021/07/19 12:01:11;;;;;;;0.10;0.10;;;;;;;;;;5089010;28;20440;-67
2021/07/19 12:03:38;;;;;;;0.00;0.00;;;;;;;;;;5098175;28;20234;-67
2021/07/19 12:06:04;;;;;;;0.10;0.10;;;;;;;;;;5086722;28;20202;-67
2021/07/19 12:08:32;;;;;;;0.00;0.00;;;;;;;;;;5096908;28;20251;-67
2021/07/19 12:10:59;;;;;;;0.00;0.00;;;;;;;;;;5088651;28;20228;-66
2021/07/19 12:13:26;;;;;;;0.10;0.10;;;;;;;;;;5092204;28;20204;-66
2021/07/19 12:15:53;;;;;;;0.00;0.00;;;;;;;;;;5092188;28;21295;-66
2021/07/19 12:18:28;;;;;;;0.10;0.10;;;;;;;;;;5090700;28;20549;-65
2021/07/19 12:20:55;;;;;;;0.10;0.10;;;;;;;;;;5091650;28;20212;-66
2021/07/19 12:23:21;;;;;;;0.03;0.03;;;;;;;;;;5091337;28;21597;-66
2021/07/19 12:25:56;;;;;;;0.10;0.10;;;;;;;;;;5091187;28;20239;-65
2021/07/19 12:28:22;;;;;;;0.00;0.00;;;;;;;;;;5090722;28;20211;-66
2021/07/19 12:30:49;;;;;;;0.00;0.00;;;;;;;;;;5090556;28;20284;-66
2021/07/19 12:33:21;;;;;;;0.10;0.10;;;;;;;;;;5090912;28;20233;-66
2021/07/19 12:35:51;;;;;;;0.00;0.00;;;;;;;;;;5090733;28;20203;-66
2021/07/19 12:38:17;;;;;;;0.08;0.08;;;;;;;;;;5091052;28;20292;-65
2021/07/19 12:40:43;;;;;;;0.10;0.10;;;;;;;;;;5090720;28;20221;-65
2021/07/19 12:43:10;;;;;;;0.55;0.55;;;;;;;;;;5091154;28;20441;-66
2021/07/19 12:45:36;;;;;;;0.00;0.00;;;;;;;;;;5091166;28;20322;-67
2021/07/19 12:48:02;;;;;;;0.10;0.10;;;;;;;;;;5091226;28;20213;-65
2021/07/19 12:50:29;;;;;;;0.05;0.05;;;;;;;;;;5091126;28;20218;-66
2021/07/19 12:52:57;;;;;;;0.00;0.00;;;;;;;;;;5090555;28;20248;-65
2021/07/19 12:55:24;;;;;;;0.05;0.05;;;;;;;;;;5090797;28;20286;-66
2021/07/19 12:57:51;;;;;;;0.10;0.10;;;;;;;;;;5092493;28;20543;-66
2021/07/19 13:00:18;;;;;;;0.00;0.00;;;;;;;;;;5092855;28;20206;-68
2021/07/19 13:02:45;;;;;;;0.00;0.00;;;;;;;;;;5099712;28;20240;-65
2021/07/19 13:05:13;;;;;;;0.10;0.10;;;;;;;;;;5103696;28;20434;-64
2021/07/19 13:07:40;;;;;;;0.00;0.00;;;;;;;;;;5102013;28;20275;-66
2021/07/19 13:10:08;;;;;;;0.00;0.00;;;;;;;;;;5103152;28;20221;-65
2021/07/19 13:12:35;;;;;;;0.00;0.00;;;;;;;;;;5086768;28;20297;-65
2021/07/19 13:15:03;;;;;;;0.05;0.05;;;;;;;;;;5092164;28;20204;-65
2021/07/19 13:17:30;;;;;;;0.05;0.05;;;;;;;;;;5091456;28;20248;-65
2021/07/19 13:20:03;;;;;;;0.00;0.00;;;;;;;;;;5094531;28;20302;-65
2021/07/19 13:22:29;;;;;;;0.00;0.00;;;;;;;;;;5099253;28;20374;-64
2021/07/19 13:24:56;;;;;;;0.00;0.00;;;;;;;;;;5102465;28;20564;-65
2021/07/19 13:27:23;;;;;;;0.00;0.00;;;;;;;;;;5091626;28;20202;-65
2021/07/19 13:29:50;;;;;;;0.10;0.10;;;;;;;;;;5091733;28;20216;-65
2021/07/19 13:32:18;;;;;;;0.10;0.10;;;;;;;;;;5096847;28;20380;-66
2021/07/19 13:34:54;;;;;;;0.00;0.00;;;;;;;;;;5092161;28;20228;-66
2021/07/19 13:37:21;;;;;;;0.00;0.00;;;;;;;;;;5086085;28;20347;-64
2021/07/19 13:39:48;;;;;;;0.10;0.10;;;;;;;;;;5094272;28;20209;-65
2021/07/19 13:42:15;;;;;;;0.10;0.10;;;;;;;;;;5099133;28;20198;-65
2021/07/19 13:44:50;;;;;;;0.00;0.00;;;;;;;;;;5092076;28;20340;-65
2021/07/19 14:28:05;;;;;;;0.00;0.00;;;;;;;;;;5134166;27;20515;-72
2021/07/19 14:30:32;;;;;;;0.10;0.10;;;;;;;;;;5136539;28;20204;-72
2021/07/19 14:32:58;;;;;;;0.10;0.10;;;;;;;;;;5127009;28;20514;-73
2021/07/19 14:35:24;;;;;;;0.00;0.00;;;;;;;;;;5132238;28;20201;-73
2021/07/19 14:37:50;;;;;;;0.00;0.00;;;;;;;;;;5137255;28;20257;-73
2021/07/19 14:40:17;;;;;;;0.00;0.00;;;;;;;;;;5123196;28;20210;-71
2021/07/19 14:42:45;;;;;;;0.03;0.03;;;;;;;;;;5128053;28;20205;-70
2021/07/19 14:45:13;;;;;;;0.00;0.00;;;;;;;;;;5125197;28;20217;-70
2021/07/19 14:47:40;;;;;;;0.00;0.00;;;;;;;;;;5132598;28;20387;-70
2021/07/19 14:50:07;;;;;;;0.00;0.00;;;;;;;;;;5130330;28;20533;-70
2021/07/19 14:52:33;;;;;;;0.00;0.00;;;;;;;;;;5142060;27;20201;-71
2021/07/19 14:55:00;;;;;;;0.00;0.00;;;;;;;;;;5131986;28;20326;-69
2021/07/19 14:57:26;;;;;;;0.00;0.00;;;;;;;;;;5133473;28;20585;-73
2021/07/19 14:59:52;;;;;;;0.00;0.00;;;;;;;;;;5131413;28;20533;-72
2021/07/19 15:02:20;;;;;;;0.00;0.00;;;;;;;;;;5132910;28;20450;-72
2021/07/19 15:04:46;;;;;;;0.10;0.10;;;;;;;;;;5130424;28;20209;-72
2021/07/19 15:07:12;;;;;;;0.20;0.20;;;;;;;;;;5132154;28;20197;-73
2021/07/19 15:09:39;;;;;;;0.73;0.73;;;;;;;;;;5126709;28;20202;-74
2021/07/19 15:12:05;;;;;;;0.05;0.05;;;;;;;;;;5137948;28;20239;-72
2021/07/19 15:14:32;;;;;;;0.03;0.03;;;;;;;;;;5141202;27;20201;-73
2021/07/19 15:16:58;;;;;;;0.00;0.00;;;;;;;;;;5141421;28;20268;-73
2021/07/19 15:19:26;;;;;;;0.00;0.00;;;;;;;;;;5132302;28;20221;-75
2021/07/19 15:21:52;;;;;;;0.00;0.00;;;;;;;;;;5137416;27;20209;-75
2021/07/19 15:24:18;;;;;;;0.00;0.00;;;;;;;;;;5139378;28;20193;-73